Time;durP1;ratioP1;P1;durP2;ratioP2;P2;SDS_P1;SDS_P2;PMS_P1;PMS_P2;Temp;Humidity;BMP_temperature;BMP_pressure;BME280_temperature;BME280_humidity;BME280_pressure;Samples;Min_cycle;Max_cycle;Signal;HPM_P1;HPM_P2
2022/08/05 00:00:33;;;;;;;5.43;5.00;;;25.40;86.30;;;;;;4983951;28;20189;-55
2022/08/05 00:02:59;;;;;;;4.80;4.47;;;25.40;85.80;;;;;;4984506;28;20227;-53
2022/08/05 00:05:25;;;;;;;4.83;4.40;;;25.30;86.20;;;;;;4989357;28;20185;-53
2022/08/05 00:07:50;;;;;;;5.67;5.23;;;25.10;86.70;;;;;;4988925;28;20334;-55
2022/08/05 00:10:16;;;;;;;5.37;4.87;;;25.10;87.10;;;;;;4994462;28;20187;-54
2022/08/05 00:12:41;;;;;;;6.07;5.67;;;25.00;87.20;;;;;;4994013;28;20273;-53
2022/08/05 00:15:08;;;;;;;5.57;5.00;;;25.00;87.70;;;;;;4994245;28;20184;-54
2022/08/05 00:17:34;;;;;;;5.57;5.10;;;24.90;88.20;;;;;;4995877;28;20370;-53
2022/08/05 00:19:59;;;;;;;5.63;4.83;;;24.80;88.60;;;;;;4995357;28;21010;-53
2022/08/05 00:22:25;;;;;;;4.67;4.37;;;24.80;88.30;;;;;;4992538;28;20206;-52
2022/08/05 00:24:50;;;;;;;5.60;5.20;;;24.80;88.30;;;;;;4994268;28;20230;-53
2022/08/05 00:27:16;;;;;;;4.57;4.27;;;24.80;88.40;;;;;;4993827;28;20293;-53
2022/08/05 00:29:41;;;;;;;5.70;5.20;;;24.80;88.50;;;;;;4993761;28;20218;-54
2022/08/05 00:32:11;;;;;;;5.17;4.67;;;24.80;88.60;;;;;;4993416;28;20220;-53
2022/08/05 00:34:37;;;;;;;5.00;4.70;;;24.80;88.70;;;;;;4993545;28;20172;-54
2022/08/05 00:37:03;;;;;;;5.67;5.20;;;24.70;89.40;;;;;;4983428;28;20467;-53
2022/08/05 00:39:29;;;;;;;5.00;4.70;;;24.70;89.70;;;;;;4993323;28;20589;-53
2022/08/05 00:41:54;;;;;;;4.60;4.30;;;24.60;89.60;;;;;;4992884;28;20191;-54
2022/08/05 00:44:20;;;;;;;4.53;4.23;;;24.60;89.40;;;;;;4989726;28;20193;-53
2022/08/05 00:46:45;;;;;;;6.30;5.90;;;24.60;89.50;;;;;;4988648;28;20181;-53
2022/08/05 00:49:11;;;;;;;5.43;5.03;;;24.60;89.90;;;;;;4990008;28;20500;-53
2022/08/05 00:51:36;;;;;;;5.47;5.07;;;24.60;90.10;;;;;;4987416;28;20199;-53
2022/08/05 00:54:03;;;;;;;5.40;5.00;;;24.60;90.10;;;;;;4993805;28;20274;-53
2022/08/05 00:56:28;;;;;;;6.20;5.60;;;24.50;90.30;;;;;;4993269;28;20676;-54
2022/08/05 00:58:54;;;;;;;5.50;5.10;;;24.40;90.50;;;;;;4993359;28;20462;-54
2022/08/05 01:01:19;;;;;;;5.00;4.60;;;24.40;90.80;;;;;;4987353;28;20254;-54
2022/08/05 01:03:45;;;;;;;4.83;4.43;;;24.50;90.90;;;;;;4993105;28;20259;-54
2022/08/05 01:06:11;;;;;;;5.40;5.00;;;24.40;90.80;;;;;;4993427;28;20212;-53
2022/08/05 01:08:37;;;;;;;5.73;5.27;;;24.40;90.70;;;;;;4994013;28;20242;-53
2022/08/05 01:11:09;;;;;;;4.97;4.57;;;24.50;90.80;;;;;;4993775;28;20462;-53
2022/08/05 01:14:04;;;;;;;4.30;3.40;;;24.60;90.70;;;;;;4991581;28;20435;-52
2022/08/05 01:16:48;;;;;;;6.03;4.10;;;25.00;81.70;;;;;;4991595;28;20968;-63
2022/08/05 01:19:17;;;;;;;5.93;3.40;;;25.30;80.20;;;;;;4992411;28;20444;-63
2022/08/05 01:22:02;;;;;;;4.30;3.57;;;25.40;79.40;;;;;;4991729;28;20494;-62
2022/08/05 01:24:43;;;;;;;6.13;4.00;;;25.50;78.70;;;;;;4997924;28;20852;-62
2022/08/05 01:27:20;;;;;;;4.00;3.70;;;25.60;78.20;;;;;;4985585;28;20488;-63
2022/08/05 01:29:49;;;;;;;4.90;3.70;;;25.70;78.30;;;;;;4990579;28;20503;-63
2022/08/05 01:32:20;;;;;;;3.97;3.57;;;25.80;78.30;;;;;;4989367;28;20488;-63
2022/08/05 01:35:00;;;;;;;3.83;3.40;;;25.80;78.30;;;;;;4992369;28;20436;-63
2022/08/05 01:37:43;;;;;;;5.67;3.67;;;25.90;78.60;;;;;;4991272;28;20505;-62
2022/08/05 01:40:11;;;;;;;5.70;3.30;;;25.90;78.80;;;;;;4992617;28;20444;-63
2022/08/05 01:42:38;;;;;;;3.80;3.47;;;25.90;79.20;;;;;;4990993;28;20813;-63
2022/08/05 01:45:06;;;;;;;6.07;3.70;;;25.90;79.20;;;;;;4985206;28;20445;-63
2022/08/05 01:47:34;;;;;;;5.57;3.37;;;25.90;79.60;;;;;;4979341;28;20980;-62
2022/08/05 01:50:02;;;;;;;8.87;3.80;;;25.80;80.10;;;;;;4992207;28;20547;-63
2022/08/05 01:52:29;;;;;;;5.13;3.17;;;25.90;80.40;;;;;;4985822;28;21023;-63
2022/08/05 01:55:00;;;;;;;3.50;3.20;;;25.90;80.40;;;;;;4992758;28;20590;-63
2022/08/05 01:57:32;;;;;;;7.47;3.50;;;25.80;81.00;;;;;;4988358;28;20462;-63
2022/08/05 02:00:00;;;;;;;5.63;3.27;;;25.70;81.70;;;;;;4991634;28;20542;-61
2022/08/05 02:02:28;;;;;;;5.27;3.70;;;25.70;82.00;;;;;;4990664;28;20442;-64
2022/08/05 02:04:56;;;;;;;4.23;3.53;;;25.70;82.30;;;;;;4992352;28;20565;-64
2022/08/05 02:07:22;;;;;;;3.97;3.57;;;25.70;83.20;;;;;;4987125;28;20460;-64
2022/08/05 02:09:49;;;;;;;10.50;3.63;;;25.60;82.80;;;;;;4991647;28;20947;-61
2022/08/05 02:12:30;;;;;;;5.10;3.90;;;25.60;83.00;;;;;;4980237;28;20486;-64
2022/08/05 02:15:02;;;;;;;4.30;3.30;;;25.60;83.60;;;;;;4991362;28;20810;-64
2022/08/05 02:17:33;;;;;;;4.70;3.30;;;25.60;83.50;;;;;;4991412;28;20454;-64
2022/08/05 02:20:02;;;;;;;4.97;3.30;;;25.60;83.90;;;;;;4989802;28;20432;-64
2022/08/05 02:22:45;;;;;;;4.23;3.53;;;25.60;83.90;;;;;;4987274;28;20446;-64
2022/08/05 02:25:18;;;;;;;11.60;3.90;;;25.60;83.90;;;;;;4992294;28;20446;-64
2022/08/05 02:27:47;;;;;;;4.17;3.37;;;25.60;84.00;;;;;;4992120;28;20463;-64
2022/08/05 02:30:14;;;;;;;3.70;3.40;;;25.70;84.10;;;;;;4977301;28;21045;-64
2022/08/05 02:32:42;;;;;;;4.40;3.40;;;25.70;84.20;;;;;;4990514;28;20530;-64
2022/08/05 02:35:11;;;;;;;6.57;3.67;;;25.60;84.50;;;;;;4991908;28;20446;-62
2022/08/05 02:37:39;;;;;;;4.83;4.10;;;25.60;84.60;;;;;;4980449;28;20629;-64
2022/08/05 02:40:07;;;;;;;4.87;3.60;;;25.60;84.70;;;;;;4991033;28;20797;-64
2022/08/05 02:42:34;;;;;;;4.53;4.13;;;25.60;84.60;;;;;;4990939;28;20968;-64
2022/08/05 02:45:00;;;;;;;5.87;3.30;;;25.60;84.70;;;;;;4986339;28;20447;-64
2022/08/05 02:47:29;;;;;;;4.90;3.37;;;25.60;84.90;;;;;;4979799;28;20487;-64
2022/08/05 02:49:55;;;;;;;5.40;3.53;;;25.60;85.10;;;;;;4991595;28;20449;-64
2022/08/05 02:52:21;;;;;;;5.27;3.60;;;25.60;85.10;;;;;;4986366;28;20472;-64
2022/08/05 02:54:49;;;;;;;4.93;3.43;;;25.60;86.00;;;;;;4983793;28;20460;-64
2022/08/05 02:57:17;;;;;;;5.40;3.57;;;25.60;85.20;;;;;;4990827;28;20506;-64
2022/08/05 02:59:45;;;;;;;6.60;3.40;;;25.60;85.40;;;;;;4987866;28;20968;-64
2022/08/05 03:02:13;;;;;;;5.13;3.60;;;25.50;86.40;;;;;;4987852;28;20498;-64
2022/08/05 03:04:41;;;;;;;4.50;4.10;;;25.40;86.50;;;;;;4982719;28;20446;-64
2022/08/05 03:07:08;;;;;;;5.23;3.70;;;25.30;87.20;;;;;;4983336;28;20860;-64
2022/08/05 03:09:35;;;;;;;6.13;4.10;;;25.30;87.20;;;;;;4991849;28;20487;-62
2022/08/05 03:12:01;;;;;;;7.00;3.97;;;25.30;87.60;;;;;;4991166;28;20487;-64
2022/08/05 03:14:26;;;;;;;5.93;3.50;;;25.40;87.70;;;;;;4991436;28;20434;-62
2022/08/05 03:16:52;;;;;;;4.50;4.10;;;25.40;87.80;;;;;;4987257;28;21480;-62
2022/08/05 03:19:17;;;;;;;5.83;3.83;;;25.40;87.70;;;;;;4989708;28;20204;-62
2022/08/05 03:21:44;;;;;;;5.40;3.83;;;25.40;87.60;;;;;;4988688;28;20707;-62
2022/08/05 03:24:09;;;;;;;6.93;3.93;;;25.40;87.40;;;;;;4997497;28;20196;-62
2022/08/05 03:26:36;;;;;;;5.60;3.90;;;25.30;87.70;;;;;;4990844;28;20489;-62
2022/08/05 03:29:03;;;;;;;4.10;3.70;;;25.20;88.40;;;;;;4986988;28;20218;-62
2022/08/05 03:31:29;;;;;;;4.73;3.80;;;25.20;88.70;;;;;;4986450;28;20977;-62
2022/08/05 03:33:56;;;;;;;4.50;4.10;;;25.10;89.30;;;;;;4989147;28;20963;-62
2022/08/05 03:36:22;;;;;;;6.37;3.70;;;25.10;89.30;;;;;;4978742;28;20454;-62
2022/08/05 03:38:48;;;;;;;4.37;3.83;;;25.00;89.80;;;;;;4988663;28;20560;-62
2022/08/05 03:41:15;;;;;;;4.30;3.67;;;24.70;90.40;;;;;;4999626;28;20478;-62
2022/08/05 03:43:41;;;;;;;4.90;3.90;;;25.00;90.30;;;;;;4989003;28;20191;-64
2022/08/05 03:46:07;;;;;;;4.93;4.03;;;24.90;90.50;;;;;;4988462;28;20434;-64
2022/08/05 03:48:32;;;;;;;5.53;4.40;;;24.80;90.60;;;;;;4990604;28;20727;-62
2022/08/05 03:51:20;;;;;;;4.27;3.87;;;24.80;90.60;;;;;;4988148;28;20347;-62
2022/08/05 03:54:11;;;;;;;4.70;3.80;;;24.70;91.00;;;;;;4989403;28;20653;-64
2022/08/05 03:56:42;;;;;;;6.27;4.50;;;24.70;91.00;;;;;;4990274;28;20465;-64
2022/08/05 03:59:20;;;;;;;6.13;3.80;;;24.60;91.30;;;;;;4986589;28;20830;-64
2022/08/05 04:01:49;;;;;;;5.07;4.60;;;24.60;91.30;;;;;;4990042;28;20446;-64
2022/08/05 04:04:16;;;;;;;7.60;4.77;;;24.60;91.60;;;;;;4990922;28;20466;-64
2022/08/05 04:06:42;;;;;;;6.83;6.13;;;24.50;91.80;;;;;;4982649;28;20971;-61
2022/08/05 04:09:08;;;;;;;6.60;3.83;;;24.50;91.90;;;;;;4988814;28;20434;-61
2022/08/05 04:11:35;;;;;;;4.23;3.93;;;24.40;92.00;;;;;;4987079;28;20580;-61
2022/08/05 04:14:02;;;;;;;8.03;4.10;;;24.40;92.20;;;;;;4989386;28;20435;-61
2022/08/05 04:16:28;;;;;;;6.13;4.10;;;24.30;92.30;;;;;;4989185;28;20434;-64
2022/08/05 04:18:53;;;;;;;9.67;4.10;;;24.20;92.60;;;;;;4984750;28;20554;-64
2022/08/05 04:21:19;;;;;;;4.50;4.00;;;24.30;92.70;;;;;;4983350;28;21042;-62
2022/08/05 04:23:44;;;;;;;4.00;3.70;;;24.20;92.80;;;;;;4987244;28;20287;-64
2022/08/05 04:26:12;;;;;;;5.00;4.50;;;24.20;92.90;;;;;;4986656;28;20251;-63
2022/08/05 04:28:37;;;;;;;4.20;3.80;;;24.20;93.10;;;;;;4989393;28;20220;-63
2022/08/05 04:31:03;;;;;;;4.70;4.30;;;24.20;93.10;;;;;;4990796;28;20486;-64
2022/08/05 04:33:29;;;;;;;11.17;4.70;;;23.90;93.00;;;;;;4988777;28;20188;-64
2022/08/05 04:35:54;;;;;;;4.20;3.90;;;24.10;93.40;;;;;;4987350;28;20258;-63
2022/08/05 04:38:20;;;;;;;5.20;4.20;;;24.10;93.40;;;;;;4988903;28;20211;-63
2022/08/05 04:40:45;;;;;;;5.03;4.53;;;24.10;93.40;;;;;;4987877;28;20180;-62
2022/08/05 04:43:11;;;;;;;5.50;3.70;;;24.00;93.50;;;;;;4990086;28;20172;-62
2022/08/05 04:45:37;;;;;;;4.50;4.10;;;24.10;93.70;;;;;;4986464;28;20275;-62
2022/08/05 04:48:08;;;;;;;6.23;4.60;;;24.10;93.80;;;;;;4993712;28;20272;-62
2022/08/05 04:50:41;;;;;;;5.80;4.20;;;24.00;93.90;;;;;;4989811;28;20209;-62
2022/08/05 04:53:09;;;;;;;9.00;4.63;;;24.00;94.00;;;;;;4987864;28;20493;-63
2022/08/05 04:55:36;;;;;;;5.27;4.73;;;23.90;94.20;;;;;;4993258;28;20437;-63
2022/08/05 04:58:04;;;;;;;8.40;4.37;;;24.00;94.50;;;;;;4989967;28;20462;-63
2022/08/05 05:00:31;;;;;;;4.97;4.57;;;24.00;94.50;;;;;;4990929;28;20446;-63
2022/08/05 05:02:56;;;;;;;4.93;4.50;;;24.10;94.50;;;;;;4992666;28;20569;-63
2022/08/05 05:05:22;;;;;;;5.53;5.13;;;24.00;94.40;;;;;;4993046;28;20916;-63
2022/08/05 05:07:48;;;;;;;6.70;4.70;;;24.00;94.60;;;;;;4991683;28;20215;-63
2022/08/05 05:10:13;;;;;;;5.87;5.20;;;24.00;94.50;;;;;;4992052;28;20759;-61
2022/08/05 05:12:39;;;;;;;6.07;4.67;;;24.00;94.70;;;;;;4990945;28;20212;-63
2022/08/05 05:15:05;;;;;;;5.00;4.60;;;24.10;94.70;;;;;;4993636;28;20257;-59
2022/08/05 05:17:42;;;;;;;5.97;5.47;;;24.10;94.80;;;;;;4991202;28;20211;-62
2022/08/05 05:20:10;;;;;;;7.30;5.00;;;24.20;94.70;;;;;;4991627;28;20449;-64
2022/08/05 05:22:36;;;;;;;5.57;4.97;;;24.30;94.50;;;;;;4993068;28;20521;-62
2022/08/05 05:25:03;;;;;;;7.40;5.63;;;24.30;94.70;;;;;;4991139;28;20585;-65
2022/08/05 05:27:31;;;;;;;7.13;5.10;;;24.50;94.10;;;;;;4987178;28;20203;-52
2022/08/05 05:29:56;;;;;;;10.10;5.73;;;24.60;93.60;;;;;;4987432;28;20443;-53
2022/08/05 05:32:22;;;;;;;7.23;4.90;;;24.60;93.40;;;;;;4992586;28;20489;-54
2022/08/05 05:34:48;;;;;;;5.97;5.47;;;24.70;93.60;;;;;;4991254;28;20183;-52
2022/08/05 05:37:14;;;;;;;9.57;6.20;;;24.80;93.50;;;;;;4991844;28;20473;-53
2022/08/05 05:39:40;;;;;;;10.70;9.23;;;24.90;93.30;;;;;;4985569;28;20301;-54
2022/08/05 05:42:06;;;;;;;5.80;5.23;;;25.00;92.90;;;;;;4991518;28;20457;-53
2022/08/05 05:44:32;;;;;;;6.13;4.97;;;25.10;92.90;;;;;;4987035;28;20459;-54
2022/08/05 05:46:58;;;;;;;6.20;4.93;;;25.20;93.80;;;;;;4986152;28;20189;-60
2022/08/05 05:49:24;;;;;;;7.53;5.80;;;25.20;93.50;;;;;;4992060;28;20796;-63
2022/08/05 05:51:49;;;;;;;6.10;5.53;;;25.40;92.60;;;;;;4986088;28;20307;-61
2022/08/05 05:54:15;;;;;;;8.93;7.20;;;25.60;92.40;;;;;;4991225;28;20220;-59
2022/08/05 05:56:40;;;;;;;7.63;6.50;;;25.70;92.30;;;;;;4991646;28;20679;-60
2022/08/05 05:59:06;;;;;;;9.80;5.90;;;25.80;92.00;;;;;;4985601;28;20612;-61
2022/08/05 06:01:38;;;;;;;8.50;6.70;;;25.90;91.60;;;;;;4986369;28;20200;-60
2022/08/05 06:04:08;;;;;;;9.30;6.20;;;25.90;91.30;;;;;;4990187;28;20187;-60
2022/08/05 06:06:35;;;;;;;5.97;5.43;;;26.00;91.40;;;;;;4989184;28;20442;-58
2022/08/05 06:09:02;;;;;;;6.80;5.67;;;26.00;91.20;;;;;;4992309;28;20469;-59
2022/08/05 06:11:27;;;;;;;7.27;6.77;;;26.20;91.10;;;;;;4989558;28;20473;-59
2022/08/05 06:13:53;;;;;;;6.57;5.47;;;26.20;90.70;;;;;;4987332;28;20473;-61
2022/08/05 06:16:18;;;;;;;5.70;5.20;;;26.30;90.50;;;;;;4986757;28;20186;-60
2022/08/05 06:18:44;;;;;;;6.10;5.43;;;26.40;90.20;;;;;;4989461;28;20205;-60
2022/08/05 06:21:10;;;;;;;5.30;4.83;;;26.40;90.40;;;;;;4987270;28;20664;-61
2022/08/05 06:23:35;;;;;;;6.67;5.77;;;26.20;90.10;;;;;;4984812;28;20240;-62
2022/08/05 06:26:01;;;;;;;5.70;5.20;;;26.30;90.00;;;;;;4989633;28;20198;-66
2022/08/05 06:28:27;;;;;;;5.37;5.00;;;26.40;89.50;;;;;;4990280;28;20222;-67
2022/08/05 06:30:53;;;;;;;7.23;5.30;;;26.50;89.00;;;;;;4991856;28;20655;-59
2022/08/05 06:33:18;;;;;;;8.40;5.00;;;26.60;88.30;;;;;;4992339;28;20461;-71
2022/08/05 06:35:44;;;;;;;7.27;6.50;;;26.60;87.90;;;;;;4988673;28;20191;-69
2022/08/05 06:38:09;;;;;;;5.63;5.20;;;26.70;87.70;;;;;;4988743;28;20203;-70
2022/08/05 06:40:35;;;;;;;4.80;4.40;;;26.80;87.60;;;;;;4989925;28;20658;-69
2022/08/05 06:43:00;;;;;;;5.03;4.63;;;26.90;87.40;;;;;;4982554;28;20183;-64
2022/08/05 06:45:26;;;;;;;7.03;5.57;;;26.90;86.80;;;;;;4989983;28;20192;-65
2022/08/05 06:47:52;;;;;;;5.20;4.80;;;27.00;86.90;;;;;;4987522;28;20215;-61
2022/08/05 06:50:17;;;;;;;6.80;4.63;;;27.00;86.80;;;;;;4989419;28;20198;-61
2022/08/05 06:52:43;;;;;;;6.43;5.03;;;27.20;85.80;;;;;;4987654;28;20218;-61
2022/08/05 06:55:08;;;;;;;7.30;5.87;;;27.30;85.00;;;;;;4990691;28;20195;-61
2022/08/05 06:57:34;;;;;;;5.57;5.17;;;27.40;84.20;;;;;;4987439;28;20203;-59
2022/08/05 07:00:02;;;;;;;11.23;5.00;;;27.60;83.20;;;;;;4990048;28;20180;-60
2022/08/05 07:02:28;;;;;;;5.27;4.20;;;27.70;82.80;;;;;;4988099;28;20247;-67
2022/08/05 07:04:53;;;;;;;4.97;4.50;;;28.00;81.00;;;;;;4988539;28;20542;-58
2022/08/05 07:07:19;;;;;;;5.17;4.70;;;28.00;80.50;;;;;;4984182;28;20553;-60
2022/08/05 07:09:44;;;;;;;5.17;4.07;;;28.40;79.00;;;;;;4990714;28;20181;-59
2022/08/05 07:16:48;;;;;;;4.60;4.20;;;29.10;77.90;;;;;;4985510;28;20207;-59
2022/08/05 07:17:39;;;;;;;3.90;3.60;;;31.30;69.20;;;;;;4989985;28;20493;-57
2022/08/05 07:20:05;;;;;;;5.90;4.40;;;33.10;62.70;;;;;;4991108;28;20920;-63
2022/08/05 07:22:31;;;;;;;4.83;4.43;;;34.50;57.60;;;;;;4988061;28;20187;-65
2022/08/05 07:24:58;;;;;;;4.00;3.70;;;36.40;54.00;;;;;;4988894;28;20966;-66
2022/08/05 07:27:23;;;;;;;5.03;4.63;;;37.00;51.80;;;;;;4989492;28;20203;-70
2022/08/05 07:29:49;;;;;;;4.40;4.00;;;38.10;48.50;;;;;;4986271;28;20508;-67
2022/08/05 07:32:14;;;;;;;4.20;3.90;;;39.90;45.40;;;;;;4988290;28;20320;-65
2022/08/05 07:34:40;;;;;;;3.73;3.40;;;40.60;43.40;;;;;;4985998;28;20265;-65
2022/08/05 07:37:05;;;;;;;4.10;3.60;;;41.00;40.80;;;;;;4985018;28;20215;-65
2022/08/05 07:39:31;;;;;;;5.90;5.30;;;41.10;40.70;;;;;;4990100;28;20187;-65
2022/08/05 07:41:57;;;;;;;3.90;3.43;;;42.10;38.70;;;;;;4989102;28;20266;-64
2022/08/05 07:44:22;;;;;;;3.70;3.40;;;41.20;37.60;;;;;;4991721;28;20184;-66
2022/08/05 07:46:48;;;;;;;6.43;3.70;;;42.80;37.30;;;;;;4981350;28;20245;-66
2022/08/05 07:49:14;;;;;;;4.30;3.83;;;42.20;36.50;;;;;;4984065;28;20206;-66
2022/08/05 07:51:40;;;;;;;3.60;3.30;;;41.70;37.50;;;;;;4988371;28;20294;-66
2022/08/05 07:54:06;;;;;;;4.40;3.50;;;41.00;37.40;;;;;;4991351;28;20640;-65
2022/08/05 07:56:32;;;;;;;3.47;3.27;;;41.40;36.20;;;;;;4992565;28;20427;-65
2022/08/05 07:58:57;;;;;;;3.60;3.40;;;41.70;36.10;;;;;;4984800;28;20463;-67
2022/08/05 08:01:24;;;;;;;3.30;3.00;;;41.00;35.90;;;;;;4987368;28;20191;-64
2022/08/05 08:03:50;;;;;;;4.10;3.20;;;41.10;35.70;;;;;;4989973;28;20560;-65
2022/08/05 08:06:16;;;;;;;2.93;2.70;;;41.70;34.90;;;;;;4985673;28;20494;-65
2022/08/05 08:08:41;;;;;;;3.20;3.00;;;41.80;34.10;;;;;;4990008;28;20641;-65
2022/08/05 08:11:07;;;;;;;3.60;3.30;;;41.20;34.20;;;;;;4985476;28;20259;-65
2022/08/05 08:13:32;;;;;;;2.97;2.40;;;40.70;35.60;;;;;;4989031;28;20271;-65
2022/08/05 08:15:58;;;;;;;3.43;2.70;;;41.80;33.90;;;;;;4981994;28;20192;-65
2022/08/05 08:18:23;;;;;;;3.07;2.77;;;41.00;34.00;;;;;;4989727;28;20204;-65
2022/08/05 08:20:50;;;;;;;2.50;2.40;;;41.60;33.50;;;;;;4988650;28;20636;-65
2022/08/05 08:23:17;;;;;;;2.70;2.50;;;41.90;33.10;;;;;;4989440;28;20172;-64
2022/08/05 08:25:43;;;;;;;2.90;2.40;;;41.20;32.90;;;;;;4989220;28;20427;-63
2022/08/05 08:28:09;;;;;;;2.97;2.77;;;40.60;32.80;;;;;;4996106;28;20886;-64
2022/08/05 08:30:35;;;;;;;3.23;3.00;;;40.70;34.20;;;;;;4992617;28;20533;-66
2022/08/05 08:33:05;;;;;;;2.50;2.40;;;40.60;34.10;;;;;;4993699;28;20672;-64
2022/08/05 08:35:31;;;;;;;3.07;2.67;;;41.00;34.10;;;;;;5002687;28;20195;-64
2022/08/05 08:37:57;;;;;;;2.90;2.70;;;41.60;33.10;;;;;;4991939;28;20915;-64
2022/08/05 08:40:23;;;;;;;4.07;2.90;;;41.40;32.70;;;;;;4992582;28;20199;-66
2022/08/05 08:42:51;;;;;;;3.17;2.97;;;42.30;32.40;;;;;;4992895;28;20194;-64
2022/08/05 08:45:19;;;;;;;2.93;2.60;;;42.60;32.60;;;;;;4987583;28;20476;-64
2022/08/05 08:47:48;;;;;;;3.30;2.70;;;41.90;31.60;;;;;;4992857;28;21043;-64
2022/08/05 08:50:15;;;;;;;2.30;2.20;;;42.40;32.70;;;;;;4995352;28;20525;-65
2022/08/05 08:52:44;;;;;;;2.57;2.43;;;42.70;31.70;;;;;;4984112;28;20489;-65
2022/08/05 08:55:10;;;;;;;2.60;2.40;;;43.10;30.90;;;;;;4993258;28;20430;-65
2022/08/05 08:57:36;;;;;;;4.03;2.67;;;43.10;30.70;;;;;;4992986;28;20445;-64
2022/08/05 09:00:03;;;;;;;2.90;2.70;;;43.30;30.00;;;;;;4992781;28;20531;-64
2022/08/05 09:02:29;;;;;;;2.73;2.53;;;43.30;30.20;;;;;;4991787;28;20195;-65
2022/08/05 09:04:55;;;;;;;2.53;2.40;;;42.50;30.20;;;;;;4993200;28;20826;-64
2022/08/05 09:07:20;;;;;;;2.57;2.37;;;41.40;31.40;;;;;;4985469;28;20298;-64
2022/08/05 09:09:46;;;;;;;3.93;2.77;;;41.80;32.00;;;;;;4992862;28;20187;-65
2022/08/05 09:12:11;;;;;;;2.83;2.63;;;42.60;31.60;;;;;;4991908;28;20235;-66
2022/08/05 09:14:38;;;;;;;3.80;3.17;;;43.80;30.20;;;;;;4992823;28;20291;-65
2022/08/05 09:17:09;;;;;;;3.00;2.80;;;44.40;29.20;;;;;;4979992;28;20290;-65
2022/08/05 09:19:35;;;;;;;3.20;2.20;;;43.80;29.20;;;;;;4997901;28;20517;-66
2022/08/05 09:22:01;;;;;;;2.87;2.67;;;44.10;29.00;;;;;;4983263;28;20461;-65
2022/08/05 09:24:26;;;;;;;3.20;2.37;;;43.60;29.30;;;;;;4992649;28;20438;-65
2022/08/05 09:26:56;;;;;;;2.70;2.50;;;43.30;29.20;;;;;;4992215;28;20302;-65
2022/08/05 09:29:46;;;;;;;2.80;2.30;;;43.40;29.30;;;;;;4988233;28;20226;-67
2022/08/05 09:32:12;;;;;;;3.40;2.10;;;43.70;29.10;;;;;;4985662;28;20517;-65
2022/08/05 09:35:11;;;;;;;2.60;2.40;;;43.40;29.40;;;;;;4981059;28;20984;-65
2022/08/05 09:37:37;;;;;;;3.57;2.70;;;43.10;29.10;;;;;;4994360;28;20664;-65
2022/08/05 09:40:04;;;;;;;2.47;2.30;;;43.10;29.20;;;;;;4992318;28;20849;-65
2022/08/05 09:42:39;;;;;;;2.40;2.27;;;43.30;28.90;;;;;;4991927;28;20987;-65
2022/08/05 09:45:07;;;;;;;3.70;3.00;;;43.70;28.80;;;;;;4992027;28;20459;-64
2022/08/05 09:47:33;;;;;;;3.07;2.83;;;42.30;28.80;;;;;;4987778;28;20498;-65
2022/08/05 09:49:59;;;;;;;2.50;2.30;;;41.60;29.80;;;;;;4990538;28;20516;-64
2022/08/05 09:52:33;;;;;;;3.23;2.80;;;40.10;31.30;;;;;;4991445;28;20254;-64
2022/08/05 09:55:00;;;;;;;3.00;2.80;;;39.50;32.30;;;;;;4991109;28;20179;-65
2022/08/05 09:57:33;;;;;;;3.27;2.63;;;38.70;33.90;;;;;;4986593;28;20489;-64
2022/08/05 10:00:03;;;;;;;3.13;2.60;;;39.50;33.00;;;;;;4984435;28;20474;-64
2022/08/05 10:02:33;;;;;;;5.97;2.30;;;40.30;32.60;;;;;;4988336;28;20462;-64
2022/08/05 10:05:05;;;;;;;2.70;2.37;;;40.40;30.60;;;;;;4991700;28;20434;-64
2022/08/05 10:07:48;;;;;;;2.50;2.30;;;41.00;31.60;;;;;;4979484;28;20553;-64
2022/08/05 10:10:15;;;;;;;3.63;2.63;;;41.60;30.30;;;;;;4991900;28;20826;-64
2022/08/05 10:12:52;;;;;;;2.20;2.10;;;41.10;31.00;;;;;;4991416;28;20992;-63
2022/08/05 10:15:38;;;;;;;3.30;3.00;;;40.90;30.90;;;;;;4989626;28;20768;-64
2022/08/05 10:18:18;;;;;;;4.13;2.70;;;40.80;31.50;;;;;;4991409;28;20794;-64
2022/08/05 10:20:45;;;;;;;2.87;2.60;;;40.20;31.80;;;;;;4991001;28;20781;-67
2022/08/05 10:23:13;;;;;;;2.40;2.20;;;38.80;33.10;;;;;;4991098;28;20525;-63
2022/08/05 10:25:39;;;;;;;4.20;2.50;;;37.30;35.00;;;;;;4991356;28;20431;-63
2022/08/05 10:28:05;;;;;;;2.73;2.50;;;36.30;36.20;;;;;;4994197;28;20517;-63
2022/08/05 10:30:32;;;;;;;4.50;3.30;;;35.70;37.80;;;;;;4983759;28;20194;-65
2022/08/05 10:32:58;;;;;;;4.23;3.10;;;35.30;38.40;;;;;;4983149;28;20565;-63
2022/08/05 10:35:24;;;;;;;2.70;2.50;;;34.20;39.30;;;;;;4986017;28;20577;-63
2022/08/05 10:37:51;;;;;;;2.93;2.73;;;33.70;40.80;;;;;;4987060;28;20593;-63
2022/08/05 10:40:27;;;;;;;2.70;2.50;;;33.80;41.70;;;;;;4984057;28;20442;-65
2022/08/05 10:42:57;;;;;;;2.20;2.10;;;33.60;41.30;;;;;;4990733;28;20958;-63
2022/08/05 10:45:26;;;;;;;3.83;2.40;;;33.50;41.70;;;;;;4989825;28;20442;-63
2022/08/05 10:47:52;;;;;;;2.60;2.40;;;33.30;41.80;;;;;;4989532;28;20474;-63
2022/08/05 10:50:19;;;;;;;2.90;2.67;;;33.20;42.80;;;;;;4990904;28;20453;-63
2022/08/05 10:52:56;;;;;;;3.63;2.53;;;33.20;41.90;;;;;;4981642;28;20471;-65
2022/08/05 10:55:22;;;;;;;2.90;2.63;;;33.30;42.30;;;;;;4982117;28;20447;-63
2022/08/05 10:58:04;;;;;;;2.90;2.70;;;33.10;42.70;;;;;;4989380;28;20470;-65
2022/08/05 11:00:30;;;;;;;3.67;2.50;;;33.10;42.70;;;;;;4981955;28;20451;-65
2022/08/05 11:03:05;;;;;;;2.90;2.70;;;33.00;42.90;;;;;;4992525;28;20588;-64
2022/08/05 11:05:32;;;;;;;2.60;2.43;;;32.80;43.40;;;;;;4994844;28;20552;-65
2022/08/05 11:08:04;;;;;;;2.77;2.57;;;32.80;43.20;;;;;;4986402;28;20971;-63
2022/08/05 11:10:32;;;;;;;2.70;2.50;;;32.90;43.30;;;;;;4982200;28;20442;-63
2022/08/05 11:12:58;;;;;;;3.00;2.80;;;33.20;42.90;;;;;;4989211;28;20478;-65
2022/08/05 11:15:39;;;;;;;2.70;2.50;;;33.40;42.40;;;;;;4991996;28;20435;-63
2022/08/05 11:18:26;;;;;;;3.83;2.90;;;33.70;42.40;;;;;;4984624;28;20454;-64
2022/08/05 11:20:52;;;;;;;3.47;2.63;;;34.80;41.50;;;;;;4987670;28;20434;-64
2022/08/05 11:23:52;;;;;;;3.47;3.27;;;35.90;39.60;;;;;;4991116;28;20447;-64
2022/08/05 11:26:21;;;;;;;3.83;2.53;;;36.20;38.50;;;;;;4986622;28;20441;-65
2022/08/05 11:28:51;;;;;;;3.03;2.73;;;37.20;37.60;;;;;;4990635;28;20442;-64
2022/08/05 11:31:28;;;;;;;2.90;2.70;;;37.90;36.30;;;;;;4985038;28;20478;-65
2022/08/05 11:33:59;;;;;;;3.20;3.00;;;38.40;35.40;;;;;;4985790;28;20450;-64
2022/08/05 11:36:51;;;;;;;2.80;2.60;;;38.30;35.50;;;;;;4983116;28;20502;-64
2022/08/05 11:39:46;;;;;;;5.23;3.00;;;38.00;35.80;;;;;;4983220;28;20435;-66
2022/08/05 11:42:13;;;;;;;2.87;2.60;;;38.10;35.30;;;;;;4981955;28;20450;-64
2022/08/05 11:44:39;;;;;;;3.10;2.80;;;38.10;34.90;;;;;;4984404;28;20451;-64
2022/08/05 11:47:06;;;;;;;4.17;2.50;;;37.70;35.50;;;;;;4988275;28;20481;-65
2022/08/05 11:49:32;;;;;;;3.83;2.90;;;37.20;36.20;;;;;;4985506;28;20451;-65
2022/08/05 11:51:58;;;;;;;2.93;2.53;;;36.70;37.60;;;;;;4985910;28;20467;-64
2022/08/05 11:54:32;;;;;;;2.97;2.77;;;36.40;38.00;;;;;;4987907;28;21195;-64
2022/08/05 11:56:59;;;;;;;3.73;3.43;;;36.10;37.70;;;;;;4987994;28;20538;-63
2022/08/05 11:59:28;;;;;;;3.10;2.90;;;36.00;38.50;;;;;;4979687;28;20454;-66
2022/08/05 12:02:19;;;;;;;2.97;2.77;;;36.20;38.10;;;;;;4988106;28;20442;-68
2022/08/05 12:04:50;;;;;;;3.10;2.87;;;36.40;38.70;;;;;;4991530;28;21089;-65
2022/08/05 12:07:17;;;;;;;3.73;3.43;;;35.60;39.00;;;;;;4991020;28;20455;-65
2022/08/05 12:09:52;;;;;;;3.77;2.90;;;35.10;39.80;;;;;;4987022;28;20940;-64
2022/08/05 12:12:26;;;;;;;3.13;2.83;;;34.50;40.20;;;;;;4989931;28;21043;-65
2022/08/05 12:14:52;;;;;;;3.00;2.80;;;34.70;41.60;;;;;;4992571;28;20464;-62
2022/08/05 12:17:17;;;;;;;3.20;2.90;;;34.40;41.60;;;;;;4992766;28;22477;-63
2022/08/05 12:19:47;;;;;;;3.03;2.83;;;34.20;42.30;;;;;;4990996;28;20606;-62
2022/08/05 12:22:15;;;;;;;5.03;3.20;;;34.20;42.20;;;;;;4984613;28;20191;-62
2022/08/05 12:24:43;;;;;;;3.10;2.90;;;33.90;42.70;;;;;;4986659;28;20443;-67
2022/08/05 12:27:09;;;;;;;3.90;3.30;;;33.80;42.90;;;;;;4993082;28;20474;-64
2022/08/05 12:29:35;;;;;;;3.33;2.80;;;33.60;43.20;;;;;;4987024;28;20953;-70
2022/08/05 12:32:01;;;;;;;3.50;3.20;;;33.60;43.30;;;;;;4987855;28;20246;-68
2022/08/05 12:34:27;;;;;;;4.00;3.30;;;33.40;43.50;;;;;;4982679;28;20191;-68
2022/08/05 12:36:59;;;;;;;3.30;3.00;;;33.30;44.30;;;;;;4986922;28;20231;-68
2022/08/05 12:39:26;;;;;;;5.20;3.80;;;33.10;44.30;;;;;;4988529;28;20442;-69
2022/08/05 12:41:58;;;;;;;4.27;3.60;;;33.30;45.30;;;;;;4989945;28;20458;-68
2022/08/05 12:44:25;;;;;;;3.93;3.43;;;33.40;44.80;;;;;;4990983;28;20533;-69
2022/08/05 12:46:53;;;;;;;4.47;3.43;;;33.50;45.30;;;;;;4987909;28;20442;-68
2022/08/05 12:49:19;;;;;;;4.50;4.20;;;33.30;44.20;;;;;;4993994;28;20532;-68
2022/08/05 12:51:55;;;;;;;5.93;3.30;;;33.10;44.70;;;;;;4984523;28;21036;-69
2022/08/05 12:54:25;;;;;;;3.90;3.60;;;33.20;44.70;;;;;;4985253;28;20179;-68